createdAt,value
2017-12-14T00:01:21.066Z,0.30
2017-12-14T00:03:49.688Z,0.30
2017-12-14T00:06:17.307Z,-0.20
2017-12-14T00:08:44.928Z,-0.20
2017-12-14T00:11:12.603Z,-0.20
2017-12-14T00:13:40.215Z,-0.10
2017-12-14T00:16:07.847Z,-0.10
2017-12-14T00:21:03.155Z,-0.20
2017-12-14T00:23:30.774Z,-0.20
2017-12-14T00:26:01.460Z,0.10
2017-12-14T00:28:29.091Z,-0.20
2017-12-14T00:36:02.951Z,-0.50
2017-12-14T00:38:30.571Z,-0.40
2017-12-14T00:40:58.245Z,-0.50
2017-12-14T00:43:25.859Z,-0.60
2017-12-14T00:45:53.482Z,-0.60
2017-12-14T00:48:21.193Z,-0.60
2017-12-14T00:50:48.839Z,-0.70
2017-12-14T00:55:44.107Z,0.00
2017-12-14T00:58:11.722Z,-0.30
2017-12-14T01:00:40.199Z,-0.30
2017-12-14T01:03:07.893Z,1.20
2017-12-14T01:05:35.497Z,0.70
2017-12-14T01:08:03.155Z,-0.40
2017-12-14T01:10:30.823Z,-0.10
2017-12-14T01:12:58.425Z,0.00
2017-12-14T01:15:26.036Z,-0.40
2017-12-14T01:17:53.728Z,-0.80
2017-12-14T01:20:21.338Z,-1.00
2017-12-14T01:22:48.944Z,-0.90
2017-12-14T01:25:16.880Z,-0.80
2017-12-14T01:30:12.106Z,-0.20
2017-12-14T01:35:07.405Z,-0.50
2017-12-14T01:37:35.015Z,-0.40
2017-12-14T01:40:02.675Z,-0.40
2017-12-14T01:42:30.279Z,0.40
2017-12-14T01:44:57.884Z,0.20
2017-12-14T01:47:25.554Z,-0.10
2017-12-14T01:49:53.165Z,-0.30
2017-12-14T01:52:20.772Z,-0.40
2017-12-14T01:54:48.435Z,-0.70
2017-12-14T01:59:55.228Z,0.00
2017-12-14T02:02:22.837Z,-0.90
2017-12-14T02:07:18.129Z,-0.90
2017-12-14T02:09:45.740Z,-1.10
2017-12-14T02:12:13.351Z,-1.00
2017-12-14T02:14:41.014Z,-1.10
2017-12-14T02:17:08.627Z,-1.00
2017-12-14T02:19:36.230Z,-0.80
2017-12-14T02:22:03.920Z,-0.40
2017-12-14T02:24:31.530Z,-0.30
2017-12-14T02:26:59.142Z,0.10
2017-12-14T02:29:26.811Z,-0.30
2017-12-14T02:31:54.421Z,-0.30
2017-12-14T02:34:22.105Z,-0.40
2017-12-14T02:36:49.723Z,-0.30
2017-12-14T02:39:17.330Z,-0.40
2017-12-14T02:41:44.950Z,-0.30
2017-12-14T02:44:12.604Z,-0.30
2017-12-14T02:46:40.212Z,-0.10
2017-12-14T02:49:07.819Z,2.20
2017-12-14T02:51:35.492Z,1.30
2017-12-14T02:54:03.102Z,1.70
2017-12-14T02:58:58.370Z,0.10
2017-12-14T03:01:25.979Z,-0.30
2017-12-14T03:03:54.412Z,-0.20
2017-12-14T03:06:22.093Z,-0.30
2017-12-14T03:08:49.703Z,1.30
2017-12-14T03:11:17.305Z,0.90
2017-12-14T03:13:44.996Z,1.00
2017-12-14T03:16:12.600Z,0.50
2017-12-14T03:18:40.209Z,0.20
2017-12-14T03:21:08.660Z,0.20
2017-12-14T03:23:36.327Z,-0.10
2017-12-14T03:28:43.063Z,-0.10
2017-12-14T03:31:10.661Z,0.40
2017-12-14T03:33:38.271Z,0.10
2017-12-14T03:36:06.872Z,-0.30
2017-12-14T03:38:34.516Z,0.10
2017-12-14T03:43:29.799Z,0.30
2017-12-14T03:45:57.398Z,0.10
2017-12-14T03:48:24.997Z,0.00
2017-12-14T03:50:52.653Z,0.10
2017-12-14T03:53:20.258Z,0.50
2017-12-14T03:55:47.866Z,0.30
2017-12-14T03:58:15.530Z,-0.50
2017-12-14T04:00:43.146Z,-0.50
2017-12-14T04:05:39.308Z,0.10
2017-12-14T04:08:06.913Z,0.00
2017-12-14T04:10:34.522Z,0.20
2017-12-14T04:18:12.207Z,-0.30
2017-12-14T04:20:39.810Z,0.20
2017-12-14T04:23:07.424Z,0.10
2017-12-14T04:25:35.077Z,0.00
2017-12-14T04:28:02.680Z,-0.30
2017-12-14T04:30:30.287Z,0.00
2017-12-14T04:32:57.950Z,0.00
2017-12-14T04:35:25.550Z,0.10
2017-12-14T04:37:53.160Z,-0.20
2017-12-14T04:40:20.825Z,-0.30
2017-12-14T04:42:48.437Z,-0.40
2017-12-14T04:45:16.043Z,-0.20
2017-12-14T04:47:43.724Z,-0.10
2017-12-14T04:50:11.350Z,-0.40
2017-12-14T04:52:38.963Z,-0.70
2017-12-14T04:55:06.629Z,-0.80
2017-12-14T04:57:34.231Z,-0.50
2017-12-14T05:00:02.262Z,-1.00
2017-12-14T05:02:29.951Z,-0.30
2017-12-14T05:04:57.558Z,0.90
2017-12-14T05:07:25.162Z,2.50
2017-12-14T05:09:52.828Z,1.90
2017-12-14T05:12:20.426Z,1.70
2017-12-14T05:14:48.032Z,0.80
2017-12-14T05:17:15.706Z,0.90
2017-12-14T05:19:43.312Z,1.40
2017-12-14T05:22:11.598Z,2.10
2017-12-14T05:24:38.591Z,2.30
2017-12-14T05:29:45.106Z,1.30
2017-12-14T05:32:12.712Z,1.10
2017-12-14T05:34:40.320Z,0.60
2017-12-14T05:37:07.981Z,0.60
2017-12-14T05:39:35.590Z,0.20
2017-12-14T05:42:03.197Z,0.20
2017-12-14T05:44:30.891Z,0.10
2017-12-14T05:46:58.504Z,-0.10
2017-12-14T05:49:26.115Z,-0.10
2017-12-14T05:51:53.773Z,0.10
2017-12-14T05:54:21.376Z,0.50
2017-12-14T05:56:48.985Z,1.30
2017-12-14T05:59:20.655Z,0.30
2017-12-14T06:04:15.866Z,2.00
2017-12-14T06:09:11.135Z,1.50
2017-12-14T06:11:38.751Z,0.10
2017-12-14T06:14:06.688Z,-0.20
2017-12-14T06:16:34.298Z,-0.10
2017-12-14T06:21:40.737Z,-0.10
2017-12-14T06:24:08.332Z,0.00
2017-12-14T06:26:35.939Z,0.00
2017-12-14T06:29:03.630Z,-0.20
2017-12-14T06:33:58.845Z,-0.20
2017-12-14T06:36:26.531Z,-0.10
2017-12-14T06:38:54.138Z,0.00
2017-12-14T06:41:21.743Z,0.20
2017-12-14T06:43:49.424Z,0.00
2017-12-14T06:46:17.037Z,-0.10
2017-12-14T06:48:44.641Z,0.30
2017-12-14T06:51:12.308Z,0.60
2017-12-14T06:53:39.915Z,0.80
2017-12-14T06:56:07.802Z,1.50
2017-12-14T07:01:03.070Z,0.60
2017-12-14T07:03:30.678Z,1.30
2017-12-14T07:05:58.354Z,1.10
2017-12-14T07:08:25.964Z,1.30
2017-12-14T07:10:53.565Z,0.70
2017-12-14T07:13:21.979Z,0.40
2017-12-14T07:15:49.591Z,1.50
2017-12-14T07:20:44.876Z,1.30
2017-12-14T07:23:12.482Z,1.30
2017-12-14T07:25:40.094Z,1.10
2017-12-14T07:28:07.756Z,0.90
2017-12-14T07:33:20.519Z,1.10
2017-12-14T07:38:16.822Z,1.10
2017-12-14T07:40:44.484Z,1.10
2017-12-14T07:46:10.214Z,1.20
2017-12-14T07:48:37.818Z,1.40
2017-12-14T07:53:34.022Z,2.00
2017-12-14T07:56:01.631Z,2.00
2017-12-14T07:58:29.236Z,1.80
2017-12-14T08:00:56.916Z,1.80
2017-12-14T08:03:24.523Z,1.20
2017-12-14T08:05:52.134Z,1.10
2017-12-14T08:08:19.787Z,1.20
2017-12-14T08:10:47.402Z,1.20
2017-12-14T08:13:16.280Z,1.20
2017-12-14T08:15:43.937Z,1.10
2017-12-14T08:18:12.497Z,1.20
2017-12-14T08:20:40.112Z,1.20
2017-12-14T08:23:07.770Z,0.70
2017-12-14T08:25:35.371Z,0.70
2017-12-14T08:28:02.990Z,0.90
2017-12-14T08:30:30.697Z,1.00
2017-12-14T08:32:58.290Z,1.00
2017-12-14T08:35:25.889Z,0.80
2017-12-14T08:37:53.552Z,0.70
2017-12-14T08:43:03.632Z,0.70
2017-12-14T08:45:31.239Z,0.80
2017-12-14T08:47:59.810Z,0.70
2017-12-14T08:50:27.463Z,0.60
2017-12-14T08:52:55.120Z,0.60
2017-12-14T08:55:22.676Z,0.60
2017-12-14T08:57:50.359Z,0.70
2017-12-14T09:00:17.968Z,0.70
2017-12-14T09:02:45.576Z,0.80
2017-12-14T09:05:13.239Z,0.90
2017-12-14T09:07:40.851Z,0.90
2017-12-14T09:10:08.460Z,1.00
2017-12-14T09:12:36.114Z,1.10
2017-12-14T09:15:03.719Z,1.30
2017-12-14T09:17:31.328Z,1.30
2017-12-14T09:19:59.013Z,1.20
2017-12-14T09:22:26.625Z,1.30
2017-12-14T09:27:21.892Z,1.30
2017-12-14T09:29:49.504Z,1.30
2017-12-14T09:32:17.113Z,1.30
2017-12-14T09:34:44.811Z,1.40
2017-12-14T09:37:12.430Z,1.50
2017-12-14T09:39:40.029Z,1.50
2017-12-14T09:42:09.632Z,1.50
2017-12-14T09:47:04.842Z,1.60
2017-12-14T09:49:32.560Z,1.60
2017-12-14T09:52:01.884Z,1.70
2017-12-14T09:54:29.486Z,1.60
2017-12-14T09:56:57.158Z,1.60
2017-12-14T10:01:52.368Z,1.70
2017-12-14T10:09:27.744Z,1.70
2017-12-14T10:11:55.354Z,1.60
2017-12-14T10:14:22.970Z,1.50
2017-12-14T10:16:51.569Z,1.30
2017-12-14T10:19:19.185Z,1.00
2017-12-14T10:21:46.782Z,0.90
2017-12-14T10:24:14.440Z,0.90
2017-12-14T10:26:42.053Z,1.10
2017-12-14T10:29:09.655Z,1.30
2017-12-14T10:31:37.353Z,1.30
2017-12-14T10:34:06.949Z,1.10
2017-12-14T10:36:32.576Z,1.20
2017-12-14T10:39:00.249Z,1.20
2017-12-14T10:41:27.862Z,1.30
2017-12-14T10:43:55.497Z,1.30
2017-12-14T10:46:23.161Z,1.20
2017-12-14T10:51:18.381Z,1.20
2017-12-14T10:56:13.667Z,1.40
2017-12-14T10:58:41.274Z,1.40
2017-12-14T11:03:49.669Z,1.20
2017-12-14T11:06:17.329Z,1.40
2017-12-14T11:08:44.935Z,1.60
2017-12-14T11:11:12.546Z,1.70
2017-12-14T11:13:40.238Z,1.60
2017-12-14T11:18:35.522Z,1.40
2017-12-14T11:21:03.158Z,1.40
2017-12-14T11:23:30.781Z,1.30
2017-12-14T11:25:59.217Z,1.20
2017-12-14T11:28:26.916Z,1.30
2017-12-14T11:30:54.543Z,1.50
2017-12-14T11:33:22.163Z,1.50
2017-12-14T11:35:49.841Z,1.30
2017-12-14T11:38:17.880Z,1.40
2017-12-14T11:40:46.756Z,1.40
2017-12-14T11:43:14.461Z,1.30
2017-12-14T11:45:42.081Z,1.40
2017-12-14T11:50:37.393Z,1.50
2017-12-14T11:53:05.784Z,1.50
2017-12-14T11:55:35.554Z,1.60
2017-12-14T11:58:03.239Z,1.60
2017-12-14T12:00:30.859Z,1.50
2017-12-14T12:02:58.471Z,1.40
2017-12-14T12:05:26.172Z,1.30
2017-12-14T12:07:53.792Z,1.30
2017-12-14T12:12:49.094Z,1.40
2017-12-14T12:15:16.705Z,1.50
2017-12-14T12:20:22.965Z,1.70
2017-12-14T12:22:50.598Z,1.90
2017-12-14T12:25:18.216Z,1.90
2017-12-14T12:27:45.899Z,2.00
2017-12-14T12:30:13.522Z,2.10
2017-12-14T12:32:41.967Z,2.10
2017-12-14T12:35:09.669Z,2.10
2017-12-14T12:37:37.289Z,2.20
2017-12-14T12:40:04.962Z,2.30
2017-12-14T12:42:32.594Z,2.20
2017-12-14T12:47:27.850Z,1.80
2017-12-14T12:49:56.809Z,1.90
2017-12-14T12:52:27.803Z,2.00
2017-12-14T12:54:55.436Z,2.00
2017-12-14T12:57:26.264Z,1.90
2017-12-14T12:59:53.894Z,1.90
2017-12-14T13:02:21.508Z,1.90
2017-12-14T13:04:49.203Z,1.90
2017-12-14T13:07:16.830Z,1.80
2017-12-14T13:09:44.457Z,1.90
2017-12-14T13:14:40.459Z,2.00
2017-12-14T13:17:08.085Z,2.10
2017-12-14T13:19:35.768Z,2.00
2017-12-14T13:22:03.398Z,1.70
2017-12-14T13:24:31.028Z,1.70
2017-12-14T13:29:29.972Z,1.50
2017-12-14T13:31:57.597Z,1.70
2017-12-14T13:34:25.283Z,1.80
2017-12-14T13:36:52.907Z,1.80
2017-12-14T13:42:01.199Z,2.00
2017-12-14T13:44:31.600Z,2.00
2017-12-14T13:46:59.229Z,1.80
2017-12-14T13:49:26.924Z,1.70
2017-12-14T13:51:54.548Z,1.60
2017-12-14T13:56:49.948Z,1.60
2017-12-14T13:59:17.475Z,1.60
2017-12-14T14:01:45.138Z,1.50
2017-12-14T14:04:13.626Z,1.40
2017-12-14T14:06:41.255Z,1.40
2017-12-14T14:09:08.881Z,1.30
2017-12-14T14:14:04.208Z,1.20
2017-12-14T14:16:31.841Z,1.20
2017-12-14T14:19:03.047Z,1.20
2017-12-14T14:21:30.667Z,1.30
2017-12-14T14:23:58.291Z,1.30
2017-12-14T14:26:25.975Z,1.20
2017-12-14T14:28:53.635Z,1.20
2017-12-14T14:31:21.259Z,1.20
2017-12-14T14:33:48.960Z,1.20
2017-12-14T14:38:44.206Z,1.30
2017-12-14T14:41:11.892Z,1.30
2017-12-14T14:43:39.528Z,1.30
2017-12-14T14:46:07.152Z,1.30
2017-12-14T14:48:34.831Z,1.30
2017-12-14T14:51:02.450Z,1.30
2017-12-14T14:53:30.095Z,1.30
2017-12-14T14:55:57.805Z,1.30
2017-12-14T15:01:04.569Z,1.30
2017-12-14T15:03:32.183Z,1.30
2017-12-14T15:05:59.819Z,1.40
2017-12-14T15:08:27.544Z,1.40
2017-12-14T15:10:55.151Z,1.50
2017-12-14T15:18:40.366Z,1.70
2017-12-14T15:21:08.056Z,1.60
2017-12-14T15:23:35.692Z,1.50
2017-12-14T15:26:03.925Z,1.50
2017-12-14T15:28:31.960Z,1.40
2017-12-14T15:30:59.595Z,1.30
2017-12-14T15:33:27.228Z,1.30
2017-12-14T15:38:22.543Z,1.30
2017-12-14T15:40:51.028Z,1.20
2017-12-14T15:43:18.716Z,1.30
2017-12-14T15:45:46.835Z,1.30
2017-12-14T15:48:14.463Z,1.30
2017-12-14T15:50:42.205Z,1.30
2017-12-14T15:53:09.843Z,1.40
2017-12-14T15:55:38.438Z,1.30
2017-12-14T15:58:06.404Z,1.30
2017-12-14T16:00:34.050Z,1.30
2017-12-14T16:03:02.460Z,1.30
2017-12-14T16:05:30.040Z,1.30
2017-12-14T16:07:57.672Z,1.30
2017-12-14T16:10:25.309Z,1.30
2017-12-14T16:12:52.984Z,1.40
2017-12-14T16:15:23.053Z,1.60
2017-12-14T16:17:50.157Z,1.60
2017-12-14T16:20:17.867Z,1.60
2017-12-14T16:22:45.495Z,1.60
2017-12-14T16:25:13.135Z,1.80
2017-12-14T16:27:40.827Z,1.80
2017-12-14T16:30:08.457Z,1.80
2017-12-14T16:32:36.080Z,1.80
2017-12-14T16:35:03.774Z,1.70
2017-12-14T16:39:59.007Z,1.60
2017-12-14T16:42:26.716Z,1.50
2017-12-14T16:47:34.367Z,1.50
2017-12-14T16:50:01.996Z,1.50
2017-12-14T16:52:29.621Z,1.20
2017-12-14T16:54:57.291Z,1.30
2017-12-14T16:57:24.922Z,1.30
2017-12-14T16:59:52.544Z,1.20
2017-12-14T17:02:20.254Z,1.30
2017-12-14T17:04:47.883Z,1.10
2017-12-14T17:07:15.511Z,1.00
2017-12-14T17:09:43.191Z,1.00
2017-12-14T17:14:38.450Z,1.00
2017-12-14T17:17:06.147Z,1.00
2017-12-14T17:19:33.789Z,1.00
2017-12-14T17:22:01.427Z,1.00
2017-12-14T17:24:29.114Z,1.00
2017-12-14T17:26:57.617Z,0.90
2017-12-14T17:29:25.184Z,0.90
2017-12-14T17:31:52.861Z,0.90
2017-12-14T17:34:20.484Z,0.80
2017-12-14T17:36:48.115Z,0.90
2017-12-14T17:39:15.823Z,0.90
2017-12-14T17:41:43.524Z,0.90
2017-12-14T17:44:11.155Z,0.90
2017-12-14T17:49:18.995Z,0.90
2017-12-14T17:51:46.921Z,0.80
2017-12-14T17:54:14.892Z,0.90
2017-12-14T17:56:42.514Z,0.80
2017-12-14T17:59:10.642Z,0.90
2017-12-14T18:01:38.268Z,1.00
2017-12-14T18:04:05.888Z,1.10
2017-12-14T18:06:33.570Z,1.10
2017-12-14T18:09:01.956Z,1.20
2017-12-14T18:11:29.598Z,1.20
2017-12-14T18:13:57.297Z,1.30
2017-12-14T18:16:24.923Z,1.30
2017-12-14T18:18:52.555Z,1.30
2017-12-14T18:21:20.230Z,1.20
2017-12-14T18:23:47.855Z,1.20
2017-12-14T18:26:15.496Z,1.00
2017-12-14T18:28:43.185Z,1.10
2017-12-14T18:31:10.809Z,1.10
2017-12-14T18:33:38.467Z,1.10
2017-12-14T18:36:06.161Z,1.00
2017-12-14T18:38:34.655Z,1.00
2017-12-14T18:41:02.260Z,0.90
2017-12-14T18:43:29.991Z,1.00
2017-12-14T18:45:57.614Z,1.00
2017-12-14T18:50:52.943Z,1.00
2017-12-14T18:53:20.591Z,1.00
2017-12-14T18:58:16.923Z,0.80
2017-12-14T19:00:44.552Z,0.90
2017-12-14T19:03:12.194Z,0.80
2017-12-14T19:08:18.986Z,0.90
2017-12-14T19:10:46.666Z,0.90
2017-12-14T19:13:14.299Z,1.00
2017-12-14T19:15:41.939Z,1.10
2017-12-14T19:18:10.120Z,1.20
2017-12-14T19:20:38.711Z,1.30
2017-12-14T19:23:06.359Z,1.50
2017-12-14T19:25:34.040Z,1.50
2017-12-14T19:28:01.682Z,1.60
2017-12-14T19:30:29.307Z,1.60
2017-12-14T19:32:56.993Z,1.70
2017-12-14T19:35:24.614Z,1.70
2017-12-14T19:37:52.232Z,1.80
2017-12-14T19:40:20.757Z,1.70
2017-12-14T19:42:48.379Z,1.60
2017-12-14T19:45:17.811Z,1.70
2017-12-14T19:47:45.507Z,1.80
2017-12-14T19:50:13.147Z,1.90
2017-12-14T19:52:40.849Z,1.90
2017-12-14T19:55:08.516Z,1.90
2017-12-14T19:57:37.164Z,1.90
2017-12-14T20:00:04.671Z,1.70
2017-12-14T20:07:43.354Z,1.80
2017-12-14T20:10:11.005Z,1.70
2017-12-14T20:12:39.077Z,1.70
2017-12-14T20:15:06.766Z,1.70
2017-12-14T20:17:34.397Z,1.80
2017-12-14T20:20:02.522Z,1.80
2017-12-14T20:22:29.762Z,1.80
2017-12-14T20:24:57.392Z,1.80
2017-12-14T20:27:25.026Z,1.80
2017-12-14T20:29:52.761Z,1.80
2017-12-14T20:32:20.372Z,1.80
2017-12-14T20:34:48.770Z,1.80
2017-12-14T20:37:16.494Z,1.80
2017-12-14T20:39:44.119Z,1.90
2017-12-14T20:42:12.043Z,1.90
2017-12-14T20:44:39.702Z,2.00
2017-12-14T20:47:07.323Z,2.00
2017-12-14T20:49:35.932Z,1.90
2017-12-14T20:52:03.606Z,2.00
2017-12-14T20:54:31.222Z,1.80
2017-12-14T20:56:58.861Z,1.90
2017-12-14T21:01:54.441Z,1.80
2017-12-14T21:06:49.945Z,1.80
2017-12-14T21:09:17.564Z,1.90
2017-12-14T21:11:45.266Z,1.90
2017-12-14T21:14:13.796Z,1.80
2017-12-14T21:19:09.098Z,1.50
2017-12-14T21:21:36.793Z,1.60
2017-12-14T21:31:42.922Z,1.60
2017-12-14T21:34:10.557Z,1.60
2017-12-14T21:36:38.319Z,1.70
2017-12-14T21:39:05.924Z,1.80
2017-12-14T21:41:35.423Z,1.70
2017-12-14T21:44:03.156Z,1.60
2017-12-14T21:46:30.757Z,1.50
2017-12-14T21:48:59.106Z,1.50
2017-12-14T21:51:26.794Z,1.50
2017-12-14T21:53:54.512Z,1.50
2017-12-14T21:56:22.376Z,1.40
2017-12-14T21:58:50.105Z,1.50
2017-12-14T22:01:17.724Z,1.30
2017-12-14T22:06:24.158Z,1.30
2017-12-14T22:11:19.445Z,1.40
2017-12-14T22:13:47.136Z,1.50
2017-12-14T22:16:14.769Z,1.60
2017-12-14T22:18:42.414Z,1.70
2017-12-14T22:21:10.916Z,1.70
2017-12-14T22:23:38.541Z,1.70
2017-12-14T22:26:07.125Z,1.80
2017-12-14T22:28:34.817Z,1.90
2017-12-14T22:31:02.479Z,1.90
2017-12-14T22:33:30.129Z,1.90
2017-12-14T22:35:57.855Z,1.90
2017-12-14T22:38:25.509Z,2.00
2017-12-14T22:40:53.143Z,2.00
2017-12-14T22:43:21.675Z,2.10
2017-12-14T22:48:37.471Z,2.10
2017-12-14T22:53:36.544Z,2.10
2017-12-14T22:58:32.264Z,1.60
2017-12-14T23:01:03.319Z,1.50
2017-12-14T23:03:30.164Z,1.50
2017-12-14T23:05:57.820Z,1.40
2017-12-14T23:11:08.529Z,1.40
2017-12-14T23:13:36.168Z,1.40
2017-12-14T23:16:03.798Z,1.30
2017-12-14T23:18:31.504Z,1.30
2017-12-14T23:20:59.137Z,1.20
2017-12-14T23:25:54.473Z,1.30
2017-12-14T23:28:24.165Z,1.40
2017-12-14T23:30:51.795Z,1.40
2017-12-14T23:33:20.332Z,1.40
2017-12-14T23:35:48.785Z,1.50
2017-12-14T23:40:44.168Z,1.60
2017-12-14T23:43:11.793Z,1.70
2017-12-14T23:45:39.431Z,1.70
2017-12-14T23:48:07.133Z,1.60
2017-12-14T23:50:34.764Z,1.70
2017-12-14T23:53:02.399Z,1.60
2017-12-14T23:55:31.050Z,1.60
2017-12-14T23:57:58.685Z,1.70
